Date,TemperatureHighF,TemperatureAvgF,TemperatureLowF,DewpointHighF,DewpointAvgF,DewpointLowF,HumidityHigh,HumidityAvg,HumidityLow,PressureMaxIn,PressureMinIn,WindSpeedMaxMPH,WindSpeedAvgMPH,GustSpeedMaxMPH,PrecipitationSumIn
2013-1-1,36.0,30.9,18.0,27.0,17.8,6.0,72,58,47,29.91,29.68,12,6,22,0.01
2013-1-2,27.0,18.6,9.0,18.0,8.8,-3.0,76,65,56,30.08,29.88,12,3,17,0.01
2013-1-3,23.0,12.8,4.0,9.0,-0.1,-5.0,72,57,34,30.11,29.97,10,3,15,0.00
2013-1-4,37.0,27.7,15.0,25.0,19.3,9.0,88,71,57,29.97,29.78,12,3,12,0.00
2013-1-5,40.0,33.2,23.0,25.0,21.1,17.0,82,62,42,30.24,29.80,13,3,13,0.13
2013-1-6,42.0,32.0,22.0,29.0,25.0,18.0,90,76,58,30.19,29.91,8,1,9,0.11
2013-1-7,36.0,31.1,22.0,29.0,22.7,15.0,91,72,49,30.38,29.93,8,2,11,0.02
2013-1-8,29.0,27.7,25.0,28.0,26.2,23.0,97,95,93,30.34,30.30,3,1,4,0.02
2013-1-10,34.0,34.0,34.0,25.0,25.0,24.0,69,68,68,30.51,30.49,0,0,0,0.00
2013-1-11,40.0,34.4,27.0,38.0,29.0,23.0,99,81,69,30.49,30.21,3,0,3,0.03
2013-1-12,43.0,40.1,38.0,43.0,40.1,38.0,100,100,99,30.22,30.10,3,0,5,0.05
2013-1-13,52.0,46.0,41.0,50.0,45.7,41.0,100,99,89,30.12,29.96,6,1,7,0.00
2013-1-14,61.0,51.8,41.0,51.0,42.8,27.0,98,74,44,30.21,29.83,14,4,14,0.00
2013-1-15,41.0,37.3,31.0,27.0,26.1,24.0,79,64,56,30.29,30.20,8,1,9,0.00
2013-1-16,33.0,31.8,29.0,33.0,29.9,23.0,100,93,68,30.23,29.80,3,0,4,0.01
2013-1-17,41.0,33.6,28.0,34.0,27.5,13.0,100,80,51,30.08,29.80,10,2,14,0.27
2013-1-18,28.0,20.7,14.0,14.0,3.1,-2.0,59,46,36,30.42,30.01,15,5,18,0.02
2013-1-19,47.0,35.8,21.0,32.0,22.0,7.0,74,57,41,30.37,29.85,13,4,17,0.00
2013-1-20,52.0,43.8,40.0,33.0,31.7,30.0,75,63,43,29.85,29.51,18,6,23,0.00
2013-1-21,22.0,22.0,22.0,21.0,21.0,21.0,96,96,95,29.84,29.78,0,0,0,0.00
2013-1-22,23.0,19.5,12.0,21.0,10.8,2.0,97,70,42,30.05,29.74,12,4,14,0.00
2013-1-23,14.0,9.7,6.0,4.0,-5.8,-10.0,71,49,35,30.11,30.04,16,5,20,0.00
2013-1-24,18.0,9.1,1.0,-5.0,-7.8,-11.0,59,46,34,30.18,30.03,20,6,22,0.00
2013-1-25,23.0,14.9,7.0,8.0,-3.8,-8.0,65,43,29,30.28,30.04,12,4,18,0.00
2013-1-26,22.0,16.1,11.0,12.0,3.9,-5.0,89,61,34,30.19,29.98,13,4,18,0.00
2013-1-27,29.0,19.8,12.0,5.0,3.0,0.0,70,50,32,30.44,30.19,16,4,19,0.00
2013-1-28,30.0,23.4,17.0,26.0,13.2,3.0,99,67,35,30.43,30.00,5,0,6,0.00
2013-1-29,34.0,29.5,24.0,32.0,27.8,24.0,99,93,84,30.16,30.00,3,0,5,0.02
2013-1-30,61.0,48.4,32.0,57.0,46.8,32.0,100,95,83,30.13,29.45,12,3,18,0.17
2013-1-31,59.0,41.8,30.0,58.0,29.6,17.0,97,63,42,29.55,28.93,18,8,29,0.05
2013-2-1,31.0,27.7,22.0,19.0,11.4,6.0,65,50,39,30.05,29.56,16,6,20,0.01
2013-2-2,28.0,23.5,17.0,13.0,8.4,5.0,64,52,42,30.23,30.02,15,3,15,0.00
2013-2-3,26.0,23.8,21.0,23.0,20.1,13.0,94,86,58,30.03,29.71,8,3,10,0.00
2013-2-4,28.0,23.9,20.0,22.0,12.5,7.0,93,63,42,29.91,29.69,15,5,22,0.00
2013-2-5,29.0,23.9,20.0,22.0,12.6,7.0,92,62,50,30.01,29.91,7,1,10,0.00
2013-2-6,37.0,29.2,23.0,26.0,20.0,9.0,96,71,42,30.25,29.91,11,3,19,0.00
2013-2-7,26.0,22.0,15.0,11.0,3.9,2.0,63,46,35,30.51,30.25,13,2,14,0.00
2013-2-8,31.0,26.4,16.0,30.0,24.0,11.0,100,91,57,30.48,29.62,17,6,27,3.20
2013-2-9,21.0,17.5,14.0,19.0,12.4,4.0,97,81,61,30.16,29.58,23,8,28,3.20
2013-2-10,39.0,23.7,13.0,12.0,5.4,0.0,70,47,24,30.37,30.16,7,0,9,0.00
2013-2-11,39.0,28.9,16.0,39.0,26.2,10.0,100,90,67,30.33,29.59,5,0,6,0.15
2013-2-12,44.0,38.2,33.0,35.0,29.7,27.0,100,73,56,29.85,29.58,15,5,24,0.01
2013-2-13,42.0,35.1,29.0,28.0,25.5,23.0,86,68,50,29.85,29.70,8,2,11,0.00
2013-2-14,44.0,35.3,30.0,28.0,24.2,21.0,87,65,44,29.97,29.68,12,2,15,0.00
2013-2-15,52.0,39.3,30.0,36.0,31.0,24.0,99,74,49,29.97,29.87,11,2,15,0.00
2013-2-16,38.0,33.9,29.0,32.0,27.4,19.0,99,78,56,29.93,29.70,10,3,15,0.00
2013-2-17,30.0,21.4,16.0,20.0,11.6,3.0,94,67,47,29.70,29.36,27,9,31,0.00
2013-2-18,30.0,21.7,14.0,6.0,3.1,0.0,60,46,27,30.12,29.64,24,8,32,0.00
2013-2-19,46.0,35.3,22.0,42.0,23.5,5.0,100,64,46,30.14,29.55,7,1,11,0.17
2013-2-20,42.0,32.6,26.0,42.0,22.7,14.0,100,68,47,29.75,29.51,14,6,15,0.20
2013-2-21,30.0,26.2,24.0,17.0,14.5,11.0,71,61,50,30.13,29.74,17,6,23,0.01
2013-2-22,38.0,30.7,24.0,26.0,21.2,17.0,83,69,52,30.37,30.15,9,3,11,0.00
2013-2-23,38.0,33.7,30.0,33.0,29.7,26.0,100,86,75,30.31,29.93,5,0,5,0.00
2013-2-24,36.0,33.3,30.0,36.0,33.3,30.0,100,100,98,29.93,29.69,13,6,15,0.03
2013-2-25,39.0,33.6,30.0,34.0,31.4,29.0,100,92,72,30.22,29.87,6,1,6,0.04
2013-2-26,42.0,34.6,28.0,35.0,30.3,27.0,100,85,57,30.32,30.16,5,0,5,0.05
2013-2-27,41.0,38.4,35.0,41.0,37.6,30.0,100,97,81,30.16,29.54,11,5,17,0.03
2013-2-28,46.0,38.6,34.0,39.0,35.6,34.0,100,90,67,29.63,29.51,8,1,8,0.01
2013-3-1,40.0,36.9,34.0,36.0,31.4,28.0,96,81,67,29.66,29.52,8,2,9,0.06
2013-3-2,42.0,36.7,32.0,30.0,28.1,26.0,81,71,61,29.65,29.60,9,3,9,0.08
2013-3-3,39.0,34.8,31.0,33.0,29.0,26.0,90,79,72,29.62,29.54,10,4,15,0.06
2013-3-4,38.0,33.1,30.0,30.0,23.9,-99.9,92,71,57,29.72,29.56,16,7,22,0.03
2013-3-5,43.0,35.5,30.0,34.0,28.2,22.0,93,75,59,30.05,29.72,11,3,16,0.01
2013-3-6,39.0,36.1,34.0,36.0,33.4,30.0,100,90,74,30.11,30.03,17,7,23,0.07
2013-3-7,35.0,31.8,30.0,32.0,29.8,27.0,100,93,76,30.08,29.98,18,10,22,0.02
2013-3-8,42.0,34.0,29.0,31.0,27.7,22.0,100,81,48,30.13,29.93,18,9,21,0.01
2013-3-9,44.0,36.8,29.0,31.0,25.5,21.0,96,65,52,30.34,30.12,12,4,14,0.01
2013-3-10,43.0,34.0,26.0,34.0,30.1,26.0,99,86,63,30.40,30.29,5,0,5,0.01
2013-3-11,53.0,42.3,35.0,42.0,35.7,33.0,94,79,50,30.31,30.12,5,2,10,0.00
2013-3-12,56.0,48.7,42.0,54.0,47.4,41.0,100,96,82,30.14,29.71,7,2,15,0.03
2013-3-13,53.0,44.6,37.0,53.0,32.5,21.0,100,65,36,29.76,29.67,13,4,19,0.17
2013-3-14,36.0,31.5,22.0,26.0,17.7,8.0,75,57,44,29.80,29.68,18,4,30,0.15
2013-3-15,40.0,28.7,19.0,30.0,13.6,6.0,83,54,30,29.85,29.61,15,5,30,0.01
2013-3-16,38.0,32.8,28.0,28.0,16.3,11.0,80,52,35,29.85,29.64,11,3,26,0.00
2013-3-17,35.0,29.2,23.0,17.0,12.0,6.0,74,50,31,30.30,29.86,16,4,24,0.00
2013-3-18,37.0,27.3,17.0,26.0,11.7,3.0,89,52,30,30.45,30.24,9,1,24,0.00
2013-3-19,34.0,31.4,27.0,34.0,31.3,27.0,100,100,94,30.24,29.60,13,4,26,0.01
2013-3-20,33.0,27.5,25.0,27.0,23.9,21.0,100,87,64,29.73,29.67,16,5,26,0.01
2013-3-22,38.0,34.3,31.0,23.0,22.1,21.0,66,60,51,29.71,29.64,12,4,13,0.00
2013-3-23,42.0,34.7,28.0,24.0,20.9,19.0,79,58,40,29.76,29.61,14,6,31,0.00
2013-3-24,45.0,38.3,33.0,28.0,24.4,22.0,69,57,44,29.80,29.71,12,4,31,0.00
2013-3-25,38.0,37.0,36.0,33.0,31.4,30.0,84,81,77,29.56,29.53,10,6,12,0.00
2013-3-26,49.0,40.5,34.0,31.0,25.0,21.0,79,56,33,29.76,29.53,13,5,21,0.00
2013-3-27,52.0,42.1,31.0,30.0,25.5,23.0,73,53,36,29.84,29.72,15,4,23,0.00
2013-3-28,46.0,43.4,37.0,36.0,33.4,30.0,93,68,55,29.99,29.84,8,2,23,0.00
2013-3-29,56.0,44.4,36.0,36.0,32.6,28.0,83,65,36,30.02,29.94,9,3,20,0.00
2013-4-6,54.0,54.0,54.0,30.0,30.0,30.0,40,40,40,29.94,29.94,1,1,20,0.00
2013-4-13,45.0,43.0,42.0,38.0,37.3,37.0,87,80,75,29.91,29.85,0,0,0,0.01
2013-4-14,52.0,45.6,40.0,40.0,32.7,26.0,93,63,39,30.19,29.90,13,3,23,0.02
2013-4-15,54.0,44.4,33.0,38.0,32.8,29.0,88,65,41,30.37,30.19,7,1,23,0.06
2013-4-16,63.0,52.0,39.0,50.0,40.3,35.0,91,66,44,30.38,30.03,13,4,22,0.06
2013-4-17,64.0,57.5,52.0,52.0,35.1,25.0,82,46,23,30.30,30.03,13,5,22,0.02
2013-4-18,60.0,51.1,41.0,41.0,32.1,25.0,72,50,30,30.41,30.13,9,2,12,0.00
2013-4-19,74.0,63.4,53.0,61.0,55.1,42.0,96,76,51,30.13,29.63,19,5,25,0.00
2013-4-20,67.0,53.8,46.0,62.0,40.4,22.0,95,64,35,30.18,29.57,17,5,25,0.09
2013-4-21,52.0,41.9,34.0,29.0,22.6,17.0,80,48,26,30.66,30.17,14,4,16,0.05
2013-4-22,49.0,41.1,32.0,34.0,29.6,22.0,92,67,34,30.74,30.58,8,2,12,0.01
2013-4-23,41.0,39.7,35.0,40.0,37.3,30.0,97,91,75,30.58,30.12,16,6,16,0.00
2013-4-24,70.0,54.0,41.0,49.0,44.5,40.0,97,74,42,30.12,29.77,14,5,18,0.00
2013-4-25,63.0,55.2,46.0,52.0,35.6,23.0,91,52,22,30.24,29.80,12,4,20,0.00
2013-4-26,58.0,49.3,39.0,40.0,33.8,29.0,80,57,35,30.41,30.24,6,2,7,0.00
2013-4-27,62.0,51.2,39.0,43.0,36.0,30.0,95,60,33,30.40,30.27,6,1,7,0.00
2013-4-28,66.0,53.9,38.0,41.0,34.0,-99.9,91,53,29,30.32,30.19,8,2,8,0.00
2013-4-29,67.0,57.4,47.0,46.0,36.2,23.0,82,49,24,30.25,30.16,6,2,7,0.00
2013-4-30,66.0,55.8,42.0,38.0,26.1,14.0,75,37,14,30.35,30.22,6,1,7,0.00
2013-5-1,67.0,54.1,39.0,40.0,33.9,26.0,89,51,23,30.44,30.35,5,1,6,0.00
2013-5-2,75.0,53.6,41.0,45.0,39.4,33.0,92,63,23,30.47,30.33,9,2,11,0.00
2013-5-3,56.0,49.0,42.0,42.0,39.7,38.0,89,71,56,30.50,30.35,14,4,16,0.00
2013-5-4,58.0,47.9,38.0,43.0,36.8,19.0,95,69,22,30.36,30.28,10,2,11,0.00
2013-5-5,58.0,46.8,36.0,42.0,37.4,35.0,96,73,46,30.32,30.13,5,1,6,0.00
2013-5-6,66.0,50.3,35.0,48.0,42.3,34.0,96,77,46,30.29,30.15,7,1,8,0.00
2013-5-7,75.0,61.0,43.0,56.0,49.3,41.0,95,69,42,30.17,30.08,5,1,8,0.00
2013-5-8,73.0,62.0,53.0,60.0,55.8,51.0,95,81,55,30.19,30.04,6,2,6,0.00
2013-5-9,64.0,58.7,56.0,61.0,57.2,55.0,97,95,82,30.04,29.89,7,1,9,0.25
2013-5-10,78.0,61.9,55.0,60.0,52.6,-99.9,97,78,40,29.95,29.88,4,1,6,0.33
2013-5-11,70.0,64.5,59.0,60.0,57.1,53.0,92,77,64,29.91,29.69,13,2,16,0.01
2013-5-12,70.0,61.2,52.0,61.0,48.9,-99.9,95,69,35,29.80,29.55,11,3,17,0.03
2013-5-13,57.0,49.6,41.0,34.0,29.7,26.0,73,47,30,30.02,29.80,9,3,19,0.01
2013-5-14,57.0,49.5,40.0,34.0,30.3,26.0,74,50,30,30.05,29.96,12,3,25,0.00
2013-5-15,45.0,41.0,38.0,35.0,33.1,31.0,84,74,60,30.04,30.03,0,0,0,0.00
2013-5-19,56.0,56.0,56.0,55.0,55.0,55.0,95,95,95,30.23,30.22,0,0,0,0.00
2013-5-20,80.0,66.0,56.0,61.0,57.9,55.0,96,78,50,30.22,29.90,8,2,11,0.00
2013-5-21,73.0,58.2,50.0,62.0,55.5,49.0,96,91,67,30.02,29.88,17,3,18,0.00
2013-5-22,62.0,54.5,50.0,57.0,52.3,49.0,96,92,81,30.06,29.88,6,1,7,0.05
2013-5-23,76.0,62.8,53.0,69.0,58.7,52.0,97,87,68,29.93,29.79,8,2,11,0.03
2013-5-24,71.0,62.7,50.0,65.0,59.9,49.0,96,90,76,29.82,29.64,9,2,12,0.00
2013-5-25,51.0,47.8,42.0,50.0,46.4,37.0,96,95,84,29.81,29.70,13,6,16,0.00
2013-5-26,49.0,40.6,26.0,41.0,34.2,-32.0,95,84,6,30.08,29.70,12,5,99,0.91
2013-5-27,70.0,56.4,41.0,45.0,36.9,29.0,91,55,22,30.17,30.07,11,3,17,0.23
2013-5-28,71.0,57.9,43.0,51.0,43.5,35.0,92,64,28,30.24,30.15,6,0,6,0.00
2013-5-29,68.0,61.4,54.0,62.0,58.0,50.0,95,88,79,30.18,29.98,5,0,5,0.04
2013-5-30,88.0,74.7,62.0,65.0,61.3,56.0,96,68,36,30.06,29.97,10,3,14,0.04
2013-5-31,92.0,80.5,66.0,64.0,60.4,54.0,86,55,28,30.08,29.92,10,2,11,0.00
2013-6-1,91.0,81.0,68.0,65.0,60.9,56.0,78,53,31,29.97,29.85,9,2,15,0.00
2013-6-2,89.0,78.7,70.0,66.0,61.1,-99.9,81,59,32,29.87,29.70,15,4,18,0.00
2013-6-3,77.0,69.6,63.0,64.0,59.8,44.0,94,73,42,29.84,29.74,8,2,11,0.00
2013-6-4,70.0,61.9,53.0,45.0,41.9,40.0,64,49,35,30.09,29.81,15,4,25,0.00
2013-6-5,73.0,62.4,51.0,49.0,44.9,39.0,82,55,33,30.19,30.09,7,2,10,0.00
2013-6-6,73.0,63.0,53.0,52.0,49.0,47.0,85,61,41,30.19,30.10,3,0,7,0.00
2013-6-7,59.0,55.1,53.0,56.0,53.3,51.0,96,93,74,30.11,29.83,10,2,11,0.00
2013-6-8,77.0,62.8,53.0,61.0,55.5,52.0,96,79,53,29.98,29.62,12,5,13,0.00
2013-6-9,78.0,68.1,56.0,58.0,53.4,49.0,94,63,37,30.15,29.98,8,2,13,0.00
2013-6-10,68.0,62.4,57.0,57.0,55.0,53.0,96,78,61,30.21,30.03,3,0,4,0.00
2013-6-11,60.0,57.1,55.0,57.0,55.2,54.0,96,93,82,30.03,29.59,9,3,13,0.60
2013-6-12,56.0,56.0,56.0,55.0,55.0,55.0,96,96,96,29.59,29.56,0,0,0,0.00
2013-6-15,78.0,71.9,61.0,50.0,41.6,33.0,66,36,20,29.93,29.85,12,3,12,0.00
2013-6-16,75.0,66.9,55.0,60.0,51.3,45.0,80,59,35,29.93,29.70,10,2,10,0.00
2013-6-17,84.0,68.8,60.0,61.0,57.5,51.0,94,71,33,29.90,29.75,8,2,12,0.20
2013-6-18,72.0,62.3,58.0,61.0,58.3,56.0,95,87,59,29.93,29.88,11,2,13,0.08
2013-6-19,72.0,62.7,54.0,57.0,50.4,44.0,96,68,39,30.13,29.91,8,2,9,0.00
2013-6-20,77.0,62.7,51.0,52.0,48.6,41.0,93,66,31,30.26,30.13,6,1,10,0.00
2013-6-22,84.0,78.7,73.0,61.0,57.1,52.0,59,48,36,30.19,30.09,7,2,12,0.00
2013-6-23,88.0,76.5,64.0,66.0,61.3,55.0,81,61,46,30.14,29.97,9,3,13,0.00
2013-6-24,92.0,77.5,70.0,68.0,65.8,61.0,93,70,36,30.01,29.86,11,3,12,0.25
2013-6-25,89.0,79.6,68.0,68.0,64.9,60.0,93,64,38,29.91,29.71,8,2,15,0.25
2013-6-26,82.0,73.1,64.0,71.0,66.6,62.0,96,81,51,29.86,29.72,7,2,8,0.00
2013-6-27,71.0,63.4,60.0,66.0,61.9,59.0,97,94,82,29.87,29.76,8,2,8,0.00
2013-6-28,82.0,69.9,58.0,73.0,64.6,57.0,97,85,60,29.76,29.48,9,2,9,0.00
2013-6-29,83.0,75.6,71.0,69.0,65.7,61.0,90,73,51,29.70,29.51,12,2,14,0.00
2013-6-30,85.0,76.7,69.0,68.0,66.4,64.0,91,72,51,29.92,29.71,9,1,13,0.00
2013-7-1,82.0,73.7,71.0,72.0,69.6,67.0,95,87,66,30.07,29.92,7,1,10,0.00
2013-7-2,81.0,71.3,61.0,72.0,67.3,58.0,95,88,67,30.18,30.06,8,2,10,0.00
2013-7-4,83.0,82.0,81.0,71.0,70.2,70.0,70,68,64,30.12,30.11,8,4,8,0.00
2013-7-5,92.0,83.6,76.0,71.0,68.6,64.0,81,62,40,30.14,30.02,10,3,14,0.00
2013-7-6,90.0,82.6,76.0,71.0,66.6,58.0,81,60,40,30.06,29.97,12,3,14,0.00
2013-7-7,90.0,78.9,67.0,71.0,64.7,59.0,83,64,41,30.01,29.90,6,1,7,0.00
2013-7-8,81.0,74.4,64.0,72.0,67.7,62.0,95,80,66,30.06,29.90,10,2,10,0.00
2013-7-9,72.0,67.1,64.0,65.0,63.5,63.0,95,88,77,30.10,30.04,7,2,7,0.00
2013-7-10,76.0,68.6,66.0,73.0,65.2,62.0,91,89,85,30.07,29.80,3,1,4,0.00
2013-7-11,82.0,75.8,72.0,72.0,69.7,65.0,94,82,63,29.92,29.76,6,1,6,0.00
2013-7-12,75.0,69.8,65.0,69.0,58.0,52.0,90,67,46,30.19,29.92,10,4,18,0.00
2013-7-13,79.0,70.7,64.0,67.0,62.7,58.0,89,76,64,30.30,30.19,6,1,6,0.00
2013-7-14,89.0,77.5,68.0,71.0,67.4,62.0,94,74,43,30.29,30.19,8,1,10,0.00
2013-7-15,89.0,78.2,71.0,71.0,68.4,64.0,93,74,43,30.20,30.09,8,1,10,0.00
2013-7-16,90.0,79.5,72.0,72.0,67.4,64.0,92,68,44,30.16,30.10,7,1,8,0.00
2013-7-17,92.0,79.3,69.0,73.0,68.7,64.0,95,73,40,30.16,29.98,6,1,7,0.00
2013-7-18,90.0,80.4,75.0,73.0,70.0,66.0,85,72,50,30.00,29.94,6,1,7,0.00
2013-7-19,95.0,83.8,73.0,76.0,71.1,68.0,92,68,42,29.94,29.70,11,3,13,0.00
2013-7-20,90.0,83.4,78.0,75.0,68.7,-99.9,83,64,49,29.79,29.64,9,3,13,0.02
2013-7-21,80.0,73.9,68.0,66.0,63.3,58.0,91,70,52,29.98,29.80,4,1,6,0.01
2013-7-22,80.0,70.9,66.0,71.0,67.0,65.0,100,88,64,30.01,29.90,6,1,7,0.00
2013-7-23,78.0,71.8,68.0,77.0,71.2,66.0,100,98,87,29.90,29.54,5,0,11,0.02
2013-7-24,84.0,76.1,66.0,74.0,66.9,53.0,100,76,53,29.96,29.58,8,3,13,0.01
2013-7-25,65.0,59.7,58.0,60.0,55.1,50.0,100,86,64,30.11,29.96,8,3,13,0.00
2013-7-26,70.0,64.8,60.0,68.0,63.3,60.0,100,95,80,30.06,29.92,10,4,14,0.00
2013-7-27,82.0,73.3,60.0,67.0,62.5,59.0,100,72,48,30.05,29.97,7,1,8,0.00
2013-7-28,76.0,68.9,65.0,69.0,66.2,63.0,100,91,78,30.01,29.96,8,2,10,0.00
2013-7-29,81.0,70.9,65.0,71.0,67.7,65.0,100,91,68,30.03,29.95,6,1,7,0.01
2013-7-30,79.0,71.3,62.0,68.0,60.8,53.0,100,73,41,30.09,30.02,10,2,12,0.01
2013-7-31,80.0,70.2,61.0,63.0,59.5,55.0,92,71,42,30.13,30.02,8,1,10,0.00
2013-8-1,80.0,69.7,60.0,66.0,62.4,59.0,100,79,57,30.03,29.88,6,1,10,0.00
2013-8-2,81.0,70.8,64.0,68.0,62.5,55.0,100,78,43,29.88,29.77,7,1,11,0.03
2013-8-3,78.0,70.0,63.0,66.0,62.4,59.0,100,79,53,29.86,29.76,10,2,12,0.03
2013-8-4,79.0,67.6,60.0,64.0,57.7,55.0,88,72,45,29.88,29.75,7,2,15,0.13
2013-8-5,74.0,64.4,56.0,56.0,48.9,40.0,88,61,30,30.04,29.88,14,3,19,0.07
2013-8-6,77.0,63.2,52.0,56.0,51.7,48.0,94,70,39,30.14,30.04,4,1,5,0.00
2013-8-7,78.0,67.5,56.0,61.0,56.3,51.0,96,70,46,30.19,30.09,4,0,6,0.00
2013-8-8,80.0,71.4,65.0,70.0,63.6,53.0,92,77,64,30.12,29.98,8,2,10,0.00
2013-8-9,75.0,72.8,71.0,75.0,71.4,68.0,100,95,87,30.02,29.73,7,1,8,0.00
2013-8-10,82.0,74.3,66.0,73.0,61.1,53.0,100,67,38,30.00,29.78,12,2,16,0.00
2013-8-11,78.0,67.1,56.0,59.0,55.0,52.0,94,68,41,30.08,29.98,6,1,10,0.00
2013-8-12,81.0,68.3,58.0,61.0,57.5,53.0,98,72,39,30.03,29.91,8,1,10,0.00
2013-8-13,75.0,66.7,63.0,68.0,60.7,-99.9,96,85,68,29.91,29.69,1,0,2,0.00
2013-8-14,73.0,65.1,62.0,64.0,51.9,-99.9,99,69,46,29.94,29.66,9,3,10,0.00
2013-8-20,85.0,72.2,64.0,64.0,58.1,-99.9,88,68,40,30.07,29.97,6,1,6,0.00
2013-8-21,87.0,75.1,63.0,65.0,62.6,61.0,93,68,43,30.14,30.01,6,1,6,0.00
2013-8-22,86.0,75.9,66.0,70.0,65.8,62.0,89,72,46,30.03,29.82,9,2,9,0.00
2013-8-23,78.0,71.7,65.0,69.0,60.0,50.0,93,68,44,30.12,29.81,8,3,10,0.00
2013-8-24,76.0,64.3,55.0,52.0,48.5,43.0,86,59,34,30.32,30.12,7,1,9,0.00
2013-8-25,81.0,66.2,53.0,56.0,49.0,-99.9,95,61,33,30.36,30.17,5,1,7,0.00
2013-8-26,79.0,70.2,65.0,64.0,59.1,55.0,85,69,58,30.17,29.92,9,2,12,0.00
2013-10-2,79.0,66.2,55.0,60.0,57.1,54.0,96,75,48,29.93,29.81,8,3,14,0.00
2013-10-3,76.0,64.1,54.0,58.0,52.3,45.0,94,69,33,30.07,29.94,5,1,8,0.00
2013-10-4,62.0,57.6,52.0,60.0,55.4,50.0,100,93,83,30.08,30.02,3,0,4,0.00
2013-10-5,66.0,60.1,56.0,59.0,56.9,55.0,100,90,71,30.12,30.05,4,1,6,0.00
2013-10-6,59.0,55.9,53.0,58.0,55.6,53.0,100,99,94,30.23,30.11,10,2,11,0.03
2013-10-7,77.0,64.7,57.0,71.0,62.2,57.0,100,93,67,30.13,29.80,18,2,18,0.01
2013-10-8,64.0,57.1,48.0,57.0,45.3,40.0,87,66,44,30.37,29.88,9,3,14,0.00
2013-10-18,66.0,60.6,51.0,62.0,51.7,43.0,100,75,48,29.90,29.60,13,3,13,0.00
2013-10-19,67.0,54.4,43.0,47.0,43.0,40.0,91,68,42,29.97,29.77,5,1,5,0.00
2013-10-20,60.0,53.0,44.0,51.0,38.6,-99.9,97,62,40,30.00,29.69,10,3,18,0.00
2013-10-21,66.0,50.6,36.0,47.0,40.0,34.0,96,70,40,30.12,30.00,8,2,11,0.00
2013-10-22,66.0,55.2,45.0,52.0,46.1,39.0,99,73,54,29.99,29.70,15,2,18,0.00
2013-10-23,51.0,45.9,36.0,39.0,36.3,34.0,95,71,53,29.80,29.60,3,1,6,0.00
2013-10-24,52.0,45.7,38.0,37.0,32.2,28.0,86,61,41,29.87,29.64,15,4,17,0.00
2013-10-25,48.0,43.5,36.0,36.0,30.8,28.0,86,61,48,30.14,29.88,7,2,12,0.00
2013-10-26,54.0,42.2,28.0,37.0,30.8,26.0,96,67,36,30.14,29.88,7,2,14,0.00
2013-10-27,53.0,47.2,42.0,41.0,33.6,-99.9,94,63,44,30.04,29.80,10,4,13,0.00
2013-10-28,57.0,43.5,34.0,37.0,30.4,-99.9,91,65,43,30.34,30.04,14,3,16,0.00
2013-10-29,48.0,36.8,29.0,33.0,27.8,24.0,93,71,40,30.44,30.34,5,1,8,0.00
2013-10-30,49.0,38.0,30.0,42.0,35.3,28.0,100,91,75,30.36,30.19,3,0,4,0.04
2013-12-8,29.0,26.7,22.0,23.0,20.0,18.0,89,76,63,30.58,30.45,5,1,5,0.00
2013-12-9,37.0,31.6,25.0,37.0,30.5,20.0,100,96,70,30.49,29.89,4,1,5,0.07
2013-12-10,35.0,31.7,26.0,34.0,29.1,15.0,100,91,61,29.96,29.79,10,3,14,0.03
2013-12-11,31.0,26.1,22.0,21.0,18.4,16.0,88,73,54,30.19,29.98,12,5,20,0.01
2013-12-12,23.0,19.8,15.0,19.0,10.7,4.0,95,70,44,30.26,30.07,9,2,16,0.00
2013-12-13,28.0,20.9,14.0,22.0,12.8,5.0,88,71,59,30.39,29.98,11,4,16,0.00
2013-12-14,26.0,14.0,8.0,26.0,6.1,-99.9,100,76,61,30.60,30.19,8,4,10,0.00
2013-12-15,26.0,26.0,26.0,26.0,26.0,26.0,100,100,100,30.19,30.19,2,2,8,0.00